Macquarie Island, Australia
Current Conditions -  °F | °C
As of 2:00 PM on Sunday 26 Oct 2014 (Local Time) from YMHB Reporting Station
Overcast Overcast  
Wind Chill: 55°   Ceiling: 2100
Heat Index: 55°   Visibility: 6mi
Dew Point: 52°   Wind: 7mph
Humidity: 88%   Direction: 110°ESE
Pressure: 29.91"   Gusts: NA
Location:  54.48°S, 158.95°E
Report Text: YMHB 260300Z 11006KT 9999 SCT010 OVC021 13/11 Q1013
Loading
Personal Weather Stations






























Interactive Weather Map
Tropical Storm Tracking
New forecast layout! Learn more

10-Day Weather Forecast

Advertisements
Track Severe Weather on mobile